• Join FlightAware (Why Join?)
  • Login
  • US Flag 
 
02:24AM EST


 

Airport Tracker/Info


-or-


 

Live Flight TrackerFlight Track Log ✈ UCA3597 ✈ 03-Oct-2013 ✈ KIAD - KBGM

Flight Track Log - Related Links

Times and Time Zones

All times are in EDT time to prevent confusion due to time zone crossing. See the UCA3597 flight status page for this flight to view local times or setup timezone preferences in your user account.

Time Position Orientation Groundspeed Altitude Reporting Facility
EDT Latitude Longitude Course Direction KTS MPH feet Rate Location/Type
05:55PM 40.1026 -76.9529 19° North  Level Estimated
05:56PM 40.1667 -76.9242 19° North  Level Estimated
05:57PM 40.2308 -76.8955 19° North  Level Estimated
05:58PM 40.2949 -76.8667 19° North  Level Estimated
05:59PM 40.3403 -76.8463 19° North  Level Estimated
06:00PM 40.3857 -76.8258 19° North  Level Estimated
06:01PM 40.4311 -76.8054 19° North  Level Estimated
06:02PM 40.4765 -76.7849 19° North  Level Estimated
06:03PM 40.5218 -76.7643 19° North  Level Estimated
06:04PM 40.5672 -76.7438 19° North  Level Estimated
06:05PM 40.6126 -76.7232 19° North  Level Estimated
06:06PM 40.6580 -76.7026 19° North  Level Estimated
06:07PM 40.7033 -76.6819 19° North  Level Estimated
06:08PM 40.7487 -76.6612 19° North  Level Estimated
06:09PM 40.7940 -76.6405 19° North  Level Estimated
06:10PM 40.8394 -76.6198 19° North  Level Estimated
06:11PM 40.8848 -76.5991 19° North  Level Estimated
06:12PM 40.9301 -76.5783 19° North  Level Estimated
06:13PM 40.9754 -76.5575 19° North  Level Estimated
06:14PM 41.0208 -76.5366 19° North  Level Estimated
06:15PM 41.0661 -76.5158 19° North  Level Estimated
06:16PM 41.1115 -76.4949 19° North  Level Estimated
06:17PM 41.1568 -76.4739 19° North  Level Estimated
06:18PM 41.2021 -76.4530 19° North  Level Estimated
06:19PM 41.2474 -76.4320 19° North  Level Estimated
06:20PM 41.2928 -76.4110 19° North  Level Estimated
06:21PM 41.3381 -76.3900 19° North  Level Estimated
06:22PM 41.3834 -76.3689 19° North  Level Estimated
06:23PM 41.4287 -76.3478 19° North  Level Estimated
06:24PM 41.4740 -76.3267 19° North  Level Estimated
06:25PM 41.5193 -76.3055 19° North  Level Estimated
06:26PM 41.5646 -76.2843 19° North  Level Estimated
06:27PM 41.6099 -76.2631 19° North  Level Estimated
06:28PM 41.6552 -76.2418 19° North  Level Estimated
06:29PM 41.7004 -76.2206 19° North  Level Estimated
06:30PM 41.7457 -76.1992 19° North  Level Estimated
06:31PM 41.7910 -76.1779 19° North  Level Estimated
06:32PM 41.8363 -76.1565 19° North  Level Estimated
06:33PM 41.8815 -76.1351 19° North  Level Estimated
06:34PM 41.9268 -76.1137 19° North  Level Estimated
06:35PM 41.9720 -76.0922 19° North  Level Estimated
06:36PM 42.0173 -76.0707 19° North  Level Estimated
06:37PM 42.0625 -76.0492 19° North  Level Estimated
06:38PM 42.1078 -76.0277 19° North  Level Estimated
06:39PM 42.1530 -76.0061 19° North  Level Estimated
06:40PM 42.1983 -75.9845 19° North  Level Estimated
06:41PM 42.2084 -75.9796 20° North  Level Estimated
06:42PM 42.2084 -75.9796 35° Northeast  Level Estimated
06:43PM 42.2084 -75.9796 35° Northeast  Level Estimated
06:44PM 42.2084 -75.9796 35° Northeast  Level Estimated
06:45PM 42.2084 -75.9796 35° Northeast  Level Estimated
06:46PM 42.2084 -75.9796 35° Northeast  Level Estimated
06:47PM 42.2084 -75.9796 35° Northeast  Level Estimated
06:48PM 42.2084 -75.9796 35° Northeast  Level Estimated
06:49PM 42.2084 -75.9796 35° Northeast  Level Estimated